Time;durP1;ratioP1;P1;durP2;ratioP2;P2;SDS_P1;SDS_P2;PMS_P1;PMS_P2;Temp;Humidity;BMP_temperature;BMP_pressure;BME280_temperature;BME280_humidity;BME280_pressure;Samples;Min_cycle;Max_cycle;Signal;HPM_P1;HPM_P2
2022/10/18 00:02:15;;;;;;;9.27;5.95;;;;;;;15.30;80.38;99185.53;7391371;19;20018;-73
2022/10/18 00:04:42;;;;;;;10.25;5.55;;;;;;;15.24;80.43;99188.84;7389205;19;20113;-73
2022/10/18 00:07:09;;;;;;;13.52;5.95;;;;;;;15.17;80.78;99193.19;7391401;19;20019;-73
2022/10/18 00:09:36;;;;;;;17.42;6.60;;;;;;;15.19;80.70;99201.00;7391355;19;20006;-73
2022/10/18 00:12:05;;;;;;;14.25;6.15;;;;;;;15.22;80.70;99193.53;7391445;19;20022;-73
2022/10/18 00:14:31;;;;;;;10.50;5.80;;;;;;;15.25;80.63;99201.19;7393545;19;20018;-73
2022/10/18 00:16:58;;;;;;;15.52;6.22;;;;;;;15.27;80.66;99201.84;7392933;19;20377;-73
2022/10/18 00:19:25;;;;;;;9.23;6.43;;;;;;;15.24;80.66;99199.50;7391621;19;20011;-73
2022/10/18 00:21:55;;;;;;;11.63;6.10;;;;;;;15.27;80.86;99201.00;7390782;19;20017;-73
2022/10/18 00:24:21;;;;;;;8.88;5.50;;;;;;;15.28;80.92;99203.50;7386565;19;20014;-73
2022/10/18 00:26:48;;;;;;;9.93;5.85;;;;;;;15.30;80.95;99201.53;7390179;19;20018;-73
2022/10/18 00:29:15;;;;;;;9.40;6.20;;;;;;;15.38;80.93;99206.03;7391642;19;20347;-72
2022/10/18 00:31:43;;;;;;;11.40;5.97;;;;;;;15.39;81.04;99207.69;7393920;19;20376;-73
2022/10/18 00:34:14;;;;;;;15.35;6.47;;;;;;;15.38;81.07;99208.69;7392046;19;20098;-73
2022/10/18 00:36:42;;;;;;;13.80;5.40;;;;;;;15.45;81.00;99209.69;7390371;19;20011;-73
2022/10/18 00:39:16;;;;;;;10.10;5.65;;;;;;;15.46;80.87;99203.38;7386335;19;20082;-73
2022/10/18 00:41:43;;;;;;;13.98;5.03;;;;;;;15.49;80.80;99205.69;7389126;19;20052;-73
2022/10/18 00:44:10;;;;;;;8.88;5.30;;;;;;;15.48;80.78;99201.38;7389763;19;20365;-73
2022/10/18 00:46:41;;;;;;;14.77;5.22;;;;;;;15.50;80.92;99201.19;7388491;19;20031;-73
2022/10/18 00:49:15;;;;;;;9.50;5.70;;;;;;;15.47;80.92;99193.53;7393200;19;20023;-73
2022/10/18 00:52:04;;;;;;;17.25;5.95;;;;;;;15.48;80.83;99203.19;7391887;19;20010;-72
2022/10/18 00:54:34;;;;;;;15.10;5.07;;;;;;;15.51;81.02;99202.88;7386548;19;20347;-73
2022/10/18 00:57:01;;;;;;;13.38;6.10;;;;;;;15.54;80.96;99203.34;7386920;19;20514;-73
2022/10/18 00:59:28;;;;;;;8.55;5.18;;;;;;;15.62;80.92;99199.84;7388203;19;20035;-73
2022/10/18 01:01:55;;;;;;;15.63;6.72;;;;;;;15.64;81.02;99202.34;7389729;19;20030;-72
2022/10/18 01:04:22;;;;;;;8.88;5.53;;;;;;;15.72;80.74;99200.53;7386498;19;20037;-72
2022/10/18 01:07:14;;;;;;;7.53;5.00;;;;;;;15.77;80.55;99202.69;7391027;19;20368;-73
2022/10/18 01:10:15;;;;;;;12.35;5.30;;;;;;;15.82;80.36;99202.19;7388431;19;20027;-73
2022/10/18 01:12:56;;;;;;;15.77;5.65;;;;;;;15.81;80.46;99206.69;7388398;19;20506;-73
2022/10/18 01:15:25;;;;;;;6.72;4.93;;;;;;;15.83;80.35;99207.38;7386199;19;20435;-73
2022/10/18 01:18:00;;;;;;;13.85;5.78;;;;;;;15.89;80.06;99200.50;7388117;19;20014;-73
2022/10/18 01:20:57;;;;;;;14.80;6.13;;;;;;;15.89;79.90;99201.34;7391239;19;20018;-73
2022/10/18 01:23:30;;;;;;;11.32;5.40;;;;;;;15.90;79.68;99194.16;7392510;19;20033;-73
2022/10/18 01:26:25;;;;;;;9.57;4.80;;;;;;;15.89;79.64;99195.19;7388784;19;20044;-73
2022/10/18 01:29:01;;;;;;;5.68;5.07;;;;;;;15.91;79.53;99194.00;7388776;19;20022;-72
2022/10/18 01:31:57;;;;;;;11.73;5.43;;;;;;;15.89;79.64;99189.84;7388131;19;20043;-73
2022/10/18 01:34:26;;;;;;;8.73;4.93;;;;;;;15.92;79.75;99190.31;7387559;19;20018;-73
2022/10/18 01:36:54;;;;;;;8.98;5.45;;;;;;;15.94;79.75;99195.50;7389645;19;20014;-73
2022/10/18 01:39:27;;;;;;;10.23;5.60;;;;;;;15.94;79.56;99198.16;7389412;19;20019;-73
2022/10/18 01:41:55;;;;;;;11.05;5.82;;;;;;;15.96;79.52;99197.00;7381874;19;20056;-73
2022/10/18 01:44:25;;;;;;;6.20;4.30;;;;;;;15.97;79.48;99197.84;7383980;19;20011;-73
2022/10/18 01:46:53;;;;;;;12.52;4.75;;;;;;;15.96;79.52;99199.66;7386451;19;20010;-73
2022/10/18 01:49:20;;;;;;;11.25;4.57;;;;;;;15.98;79.37;99195.00;7385999;19;20026;-72
2022/10/18 01:51:47;;;;;;;9.77;5.00;;;;;;;16.01;79.26;99185.81;7386753;19;20038;-73
2022/10/18 01:54:18;;;;;;;7.85;4.70;;;;;;;16.01;79.22;99196.50;7388592;19;20502;-73
2022/10/18 01:56:55;;;;;;;13.48;4.88;;;;;;;16.01;nan;99188.50;7385412;19;20014;-73
2022/10/18 01:59:47;;;;;;;7.35;4.82;;;;;;;16.02;79.14;99190.16;7387607;19;20015;-73
2022/10/18 02:02:30;;;;;;;10.57;4.50;;;;;;;16.02;79.13;99196.31;7389023;19;20043;-73
2022/10/18 02:04:57;;;;;;;10.13;5.15;;;;;;;16.11;78.77;99190.94;7384299;19;20484;-73
2022/10/18 02:07:30;;;;;;;7.70;4.35;;;;;;;16.09;78.70;99193.81;7389725;19;20505;-73
2022/10/18 02:10:14;;;;;;;;;;;;;;;16.02;78.86;99188.31;7391830;19;20022;-73
2022/10/18 02:13:01;;;;;;;12.20;5.30;;;;;;;16.03;78.55;99197.13;7387362;19;19948;-73
2022/10/18 02:15:38;;;;;;;9.05;4.80;;;;;;;16.10;78.35;99194.63;7384627;19;20048;-73
2022/10/18 02:18:08;;;;;;;8.52;5.30;;;;;;;16.12;77.92;99192.63;7384258;19;20035;-73
2022/10/18 02:20:35;;;;;;;11.75;5.13;;;;;;;16.04;78.26;99190.81;7386685;19;20469;-73
2022/10/18 02:23:04;;;;;;;9.20;5.10;;;;;;;15.99;78.25;99195.84;7386997;19;20014;-73
2022/10/18 02:25:33;;;;;;;10.32;4.55;;;;;;;15.91;78.33;99188.66;7386338;19;20022;-73
2022/10/18 02:28:00;;;;;;;12.55;4.38;;;;;;;15.91;78.19;99191.34;7385260;19;20543;-73
2022/10/18 02:30:50;;;;;;;10.98;4.65;;;;;;;15.85;78.37;99188.50;7386935;19;20019;-73
2022/10/18 02:33:33;;;;;;;12.43;4.97;;;;;;;15.79;78.58;99188.19;7387172;19;20077;-72
2022/10/18 02:36:04;;;;;;;9.23;4.78;;;;;;;15.82;78.82;99172.84;7380847;19;20090;-72
2022/10/18 02:38:31;;;;;;;10.25;4.63;;;;;;;15.74;79.12;99173.69;7380486;19;20370;-72
2022/10/18 02:40:58;;;;;;;9.20;4.22;;;;;;;15.79;79.08;99177.50;7381934;19;20018;-73
2022/10/18 02:43:25;;;;;;;14.38;5.25;;;;;;;15.84;78.98;99182.34;7383461;19;20019;-73
2022/10/18 02:45:52;;;;;;;9.63;4.72;;;;;;;15.91;78.64;99179.84;7385372;19;20018;-72
2022/10/18 02:48:18;;;;;;;9.05;4.25;;;;;;;15.88;78.76;99180.19;7386232;19;20035;-73
2022/10/18 02:50:45;;;;;;;11.02;4.40;;;;;;;15.84;78.84;99177.00;7385115;19;20031;-73
2022/10/18 02:53:12;;;;;;;9.75;4.78;;;;;;;15.72;78.98;99178.38;7385670;19;20015;-73
2022/10/18 02:55:38;;;;;;;11.73;4.70;;;;;;;15.74;78.93;99179.84;7385553;19;20026;-73
2022/10/18 02:58:05;;;;;;;5.80;4.45;;;;;;;15.80;78.95;99167.69;7388558;19;20039;-72
2022/10/18 03:00:32;;;;;;;7.40;4.47;;;;;;;15.89;78.86;99163.97;7386138;19;20050;-73
2022/10/18 03:02:58;;;;;;;8.90;4.85;;;;;;;15.94;78.68;99171.50;7386367;19;20030;-73
2022/10/18 03:05:25;;;;;;;8.88;5.22;;;;;;;16.01;78.33;99180.50;7387911;19;20384;-73
2022/10/18 03:07:52;;;;;;;7.75;4.72;;;;;;;16.03;77.75;99181.13;7380931;19;20356;-73
2022/10/18 03:10:18;;;;;;;9.95;4.57;;;;;;;16.00;77.82;99163.63;7382948;19;20031;-73
2022/10/18 03:12:45;;;;;;;6.78;4.53;;;;;;;15.98;78.10;99170.13;7386647;19;20018;-73
2022/10/18 03:15:12;;;;;;;7.95;4.82;;;;;;;15.92;78.23;99173.50;7386410;19;20022;-73
2022/10/18 03:17:38;;;;;;;8.27;4.75;;;;;;;15.93;78.41;99172.47;7384838;19;20023;-73
2022/10/18 03:20:05;;;;;;;8.55;4.43;;;;;;;15.94;78.27;99174.16;7387404;19;20042;-73
2022/10/18 03:22:32;;;;;;;11.00;5.18;;;;;;;15.95;78.29;99168.63;7387179;19;20022;-73
2022/10/18 03:24:59;;;;;;;8.88;5.05;;;;;;;15.97;78.06;99166.63;7380978;19;20351;-73
2022/10/18 03:27:26;;;;;;;7.75;5.00;;;;;;;15.92;78.27;99174.31;7382171;19;20017;-74
2022/10/18 03:29:52;;;;;;;8.13;4.15;;;;;;;15.93;78.13;99164.47;7385029;19;20022;-73
2022/10/18 03:32:19;;;;;;;10.20;4.57;;;;;;;15.90;78.23;99170.97;7386097;19;20387;-73
2022/10/18 03:34:46;;;;;;;11.82;4.68;;;;;;;15.91;77.82;99174.50;7384265;19;20018;-73
2022/10/18 03:37:12;;;;;;;8.23;4.22;;;;;;;15.89;77.77;99166.66;7379749;19;20022;-73
2022/10/18 03:39:39;;;;;;;8.90;4.45;;;;;;;15.86;77.88;99160.84;7386677;19;20014;-73
2022/10/18 03:42:05;;;;;;;9.57;4.50;;;;;;;15.85;77.84;99168.00;7383945;19;20018;-72
2022/10/18 03:44:32;;;;;;;10.05;4.47;;;;;;;15.84;77.63;99160.16;7383215;19;20047;-73
2022/10/18 03:46:59;;;;;;;8.98;4.22;;;;;;;15.83;77.78;99163.84;7383892;19;20006;-73
2022/10/18 03:49:25;;;;;;;8.10;5.30;;;;;;;15.76;77.70;99169.84;7382094;19;20019;-73
2022/10/18 03:51:52;;;;;;;10.00;4.50;;;;;;;15.77;77.92;99160.84;7387536;19;20014;-75
2022/10/18 03:54:19;;;;;;;5.70;4.70;;;;;;;15.75;77.95;99156.69;7384077;19;20014;-73
2022/10/18 03:56:46;;;;;;;10.57;4.20;;;;;;;15.69;78.06;99165.34;7381659;19;20101;-72
2022/10/18 03:59:13;;;;;;;4.53;3.72;;;;;;;15.67;78.20;99160.16;7384297;19;20026;-72
2022/10/18 04:01:39;;;;;;;11.60;5.00;;;;;;;15.69;78.15;99162.69;7380156;19;20039;-73
2022/10/18 04:04:06;;;;;;;11.15;4.75;;;;;;;15.67;77.95;99162.00;7384522;19;20022;-73
2022/10/18 04:06:33;;;;;;;7.93;4.13;;;;;;;15.67;77.73;99157.50;7384039;19;20021;-73
2022/10/18 04:09:00;;;;;;;10.73;4.70;;;;;;;15.62;77.96;99156.34;7384386;19;20007;-73
2022/10/18 04:11:29;;;;;;;5.10;4.57;;;;;;;15.58;78.06;99161.16;7386145;19;20019;-73
2022/10/18 04:13:56;;;;;;;10.48;5.00;;;;;;;15.54;78.25;99155.34;7386517;19;20051;-73
2022/10/18 04:16:23;;;;;;;8.80;4.75;;;;;;;15.62;78.25;99156.34;7377529;19;20019;-73
2022/10/18 04:18:50;;;;;;;8.18;4.70;;;;;;;15.61;78.42;99160.00;7382832;19;20031;-72
2022/10/18 04:21:16;;;;;;;7.40;4.63;;;;;;;15.63;78.33;99160.66;7391862;19;21288;-73
2022/10/18 04:23:46;;;;;;;6.22;3.72;;;;;;;15.66;78.49;99163.81;7390614;19;20027;-72
2022/10/18 04:26:15;;;;;;;8.10;4.80;;;;;;;15.68;78.20;99161.81;7389774;19;20006;-73
2022/10/18 04:28:42;;;;;;;6.65;4.68;;;;;;;15.69;77.76;99168.88;7391593;19;20031;-73
2022/10/18 04:31:10;;;;;;;14.23;4.82;;;;;;;15.66;77.73;99169.16;7389851;19;20010;-73
2022/10/18 04:33:37;;;;;;;4.93;3.88;;;;;;;15.65;77.99;99162.16;7388870;19;20026;-74
2022/10/18 04:36:04;;;;;;;7.05;4.47;;;;;;;15.68;77.80;99163.66;7386589;19;20377;-73
2022/10/18 04:38:30;;;;;;;16.65;4.63;;;;;;;15.69;77.72;99162.69;7393236;19;20007;-73
2022/10/18 04:40:57;;;;;;;12.63;4.13;;;;;;;15.70;77.79;99162.53;7394746;19;20018;-73
2022/10/18 04:43:24;;;;;;;8.43;3.83;;;;;;;15.68;77.89;99163.66;7390221;19;20014;-73
2022/10/18 04:45:51;;;;;;;14.32;5.82;;;;;;;15.74;77.71;99168.34;7385498;19;20488;-73
2022/10/18 04:48:17;;;;;;;5.68;4.10;;;;;;;15.72;77.67;99173.03;7386106;19;20015;-74
2022/10/18 04:50:47;;;;;;;8.30;3.95;;;;;;;15.70;77.47;99175.03;7386187;19;20057;-73
2022/10/18 04:53:15;;;;;;;6.70;4.03;;;;;;;15.69;77.13;99174.22;7388956;19;20046;-73
2022/10/18 04:55:44;;;;;;;8.15;4.38;;;;;;;15.65;77.42;99180.84;7386640;19;20014;-73
2022/10/18 04:58:10;;;;;;;9.80;4.10;;;;;;;15.61;77.67;99179.50;7388329;19;20010;-72
2022/10/18 05:00:38;;;;;;;12.13;4.10;;;;;;;15.65;77.62;99180.84;7390552;19;20691;-74
2022/10/18 05:03:06;;;;;;;8.07;4.18;;;;;;;15.66;77.36;99185.16;7391426;19;20018;-74
2022/10/18 05:05:33;;;;;;;8.48;4.82;;;;;;;15.66;77.32;99182.50;7386220;19;20082;-73
2022/10/18 05:08:20;;;;;;;8.65;4.00;;;;;;;15.62;77.29;99178.50;7385011;19;20683;-74
2022/10/18 05:10:47;;;;;;;6.13;4.10;;;;;;;15.53;77.54;99174.16;7388136;19;20026;-74
2022/10/18 05:13:14;;;;;;;7.28;4.05;;;;;;;15.56;77.23;99176.50;7389082;19;20047;-74
2022/10/18 05:15:41;;;;;;;9.90;3.75;;;;;;;15.51;77.27;99178.88;7382603;19;20436;-74
2022/10/18 05:18:08;;;;;;;7.55;4.20;;;;;;;15.45;77.53;99182.19;7388202;19;20375;-73
2022/10/18 05:20:34;;;;;;;12.55;4.10;;;;;;;15.43;77.62;99186.84;7385510;19;20014;-73
2022/10/18 05:23:01;;;;;;;6.93;3.88;;;;;;;15.44;77.37;99185.84;7383318;19;20010;-74
2022/10/18 05:25:28;;;;;;;7.53;4.25;;;;;;;15.45;77.17;99180.34;7378198;19;20026;-73
2022/10/18 05:27:55;;;;;;;13.95;4.60;;;;;;;15.43;77.17;99171.69;7381337;19;20035;-73
2022/10/18 05:30:22;;;;;;;9.98;3.72;;;;;;;15.45;77.17;99177.69;7380243;19;20128;-73
2022/10/18 05:32:48;;;;;;;7.75;4.05;;;;;;;15.38;77.15;99171.38;7381569;19;20048;-74
2022/10/18 05:35:15;;;;;;;7.78;3.88;;;;;;;15.32;77.36;99167.53;7381146;19;20095;-73
2022/10/18 05:37:42;;;;;;;5.55;4.55;;;;;;;15.25;77.56;99176.38;7383718;19;20051;-73
2022/10/18 05:40:09;;;;;;;7.65;4.50;;;;;;;15.28;77.54;99179.53;7387331;19;20018;-74
2022/10/18 05:42:36;;;;;;;8.65;4.40;;;;;;;15.23;77.77;99178.34;7386451;19;20007;-73
2022/10/18 05:45:03;;;;;;;8.57;4.22;;;;;;;15.24;77.58;99186.16;7390929;19;20018;-73
2022/10/18 05:47:29;;;;;;;5.72;3.80;;;;;;;15.22;77.61;99182.88;7384565;19;20022;-73
2022/10/18 05:49:56;;;;;;;10.50;4.75;;;;;;;15.17;77.72;99174.53;7383657;19;20032;-73
2022/10/18 05:52:23;;;;;;;8.23;4.03;;;;;;;15.16;77.55;99194.16;7389892;19;20035;-74
2022/10/18 05:54:51;;;;;;;7.40;4.25;;;;;;;15.19;77.63;99183.16;7385149;19;20021;-72
2022/10/18 05:57:18;;;;;;;8.50;3.95;;;;;;;15.19;77.70;99190.34;7387457;19;20007;-73
2022/10/18 05:59:45;;;;;;;7.20;4.75;;;;;;;15.17;77.69;99182.53;7386899;19;20113;-72
2022/10/18 06:02:12;;;;;;;7.43;4.90;;;;;;;15.21;77.64;99188.34;7387232;19;20485;-72
2022/10/18 06:04:38;;;;;;;8.48;5.07;;;;;;;15.27;77.60;99183.19;7388082;19;20026;-72
2022/10/18 06:07:11;;;;;;;7.85;5.50;;;;;;;15.28;77.63;99182.19;7390887;19;20023;-73
2022/10/18 06:09:38;;;;;;;14.73;6.15;;;;;;;15.30;77.81;99180.19;7387453;19;20035;-73
2022/10/18 06:12:04;;;;;;;9.07;4.70;;;;;;;15.31;77.75;99186.34;7387763;19;20031;-73
2022/10/18 06:14:31;;;;;;;6.45;5.20;;;;;;;15.30;78.15;99179.38;7385873;19;20022;-72
2022/10/18 06:16:58;;;;;;;10.13;6.07;;;;;;;15.33;78.24;99187.03;7389011;19;20014;-73
2022/10/18 06:19:25;;;;;;;12.13;5.30;;;;;;;15.33;78.24;99187.84;7390267;19;20023;-73
2022/10/18 06:21:52;;;;;;;8.40;5.65;;;;;;;15.43;78.18;99189.50;7390570;19;20398;-73
2022/10/18 06:24:20;;;;;;;6.80;5.20;;;;;;;15.56;78.27;99189.84;7388679;19;20602;-73
2022/10/18 06:26:48;;;;;;;11.07;5.15;;;;;;;15.64;78.06;99189.84;7385294;19;20672;-72
2022/10/18 06:29:14;;;;;;;10.15;5.28;;;;;;;15.69;78.18;99192.03;7385281;19;20117;-73
2022/10/18 06:31:41;;;;;;;9.43;5.28;;;;;;;15.83;78.16;99193.19;7387619;19;20011;-72
2022/10/18 06:34:08;;;;;;;10.45;5.50;;;;;;;15.94;78.28;99198.16;7389099;19;20364;-72
2022/10/18 06:36:35;;;;;;;13.25;5.18;;;;;;;16.08;78.35;99193.97;7387690;19;20489;-73
2022/10/18 06:39:01;;;;;;;8.75;4.82;;;;;;;16.29;78.08;99193.41;7389414;19;20011;-72
2022/10/18 06:41:28;;;;;;;7.07;4.80;;;;;;;16.50;77.25;99198.16;7383887;19;20014;-72
2022/10/18 06:44:06;;;;;;;14.50;4.72;;;;;;;16.58;76.91;99188.25;7384924;19;20525;-72
2022/10/18 06:46:32;;;;;;;11.30;4.70;;;;;;;16.74;76.56;99202.56;7382960;19;20007;-72
2022/10/18 06:48:59;;;;;;;6.18;4.43;;;;;;;16.84;76.39;99198.69;7387052;19;20011;-72
2022/10/18 06:51:26;;;;;;;7.18;4.47;;;;;;;16.95;76.47;99204.63;7385892;19;20142;-72
2022/10/18 06:53:52;;;;;;;5.85;4.05;;;;;;;17.06;76.29;99207.75;7388266;19;20014;-72
2022/10/18 06:56:39;;;;;;;6.53;4.45;;;;;;;17.09;75.88;99214.59;7385953;19;20022;-72
2022/10/18 06:59:06;;;;;;;9.77;5.10;;;;;;;17.20;75.62;99210.69;7389513;19;20038;-72
2022/10/18 07:01:32;;;;;;;9.38;4.68;;;;;;;17.29;75.65;99218.44;7387181;19;20026;-72
2022/10/18 07:03:59;;;;;;;8.50;4.35;;;;;;;17.30;75.42;99212.09;7387242;19;20092;-72
2022/10/18 07:06:26;;;;;;;5.47;3.83;;;;;;;17.30;74.94;99211.28;7383041;19;20015;-72
2022/10/18 07:08:53;;;;;;;7.43;4.55;;;;;;;17.26;74.70;99210.78;7387584;19;20014;-72
2022/10/18 07:11:23;;;;;;;12.38;4.72;;;;;;;17.37;74.74;99204.19;7387339;19;20046;-74
2022/10/18 07:13:53;;;;;;;6.82;3.97;;;;;;;17.46;74.70;99208.47;7388112;19;20486;-75
2022/10/18 07:16:20;;;;;;;7.07;3.65;;;;;;;17.52;74.80;99205.06;7385377;19;20018;-74
2022/10/18 07:18:48;;;;;;;10.40;4.22;;;;;;;17.57;74.80;99204.53;7385568;19;20014;-74
2022/10/18 07:21:17;;;;;;;9.30;4.40;;;;;;;17.60;74.77;99206.00;7382837;19;20022;-74
2022/10/18 07:23:45;;;;;;;5.30;3.67;;;;;;;17.64;74.93;99207.31;7385507;19;20042;-73
2022/10/18 07:26:24;;;;;;;8.55;4.43;;;;;;;17.64;75.00;99209.97;7385896;19;20486;-73
2022/10/18 07:28:54;;;;;;;7.32;4.93;;;;;;;17.66;75.07;99219.50;7385645;19;20385;-73
2022/10/18 07:31:21;;;;;;;9.32;4.93;;;;;;;17.69;75.06;99220.97;7387237;19;20014;-73
2022/10/18 07:33:48;;;;;;;9.20;4.50;;;;;;;17.64;75.17;99218.84;7387683;19;20486;-72
2022/10/18 07:36:15;;;;;;;10.10;4.55;;;;;;;17.70;75.23;99223.47;7381065;19;20015;-73
2022/10/18 07:38:43;;;;;;;11.45;4.55;;;;;;;17.73;75.31;99222.28;7383704;19;20025;-73
2022/10/18 07:41:11;;;;;;;9.88;4.72;;;;;;;17.74;75.50;99221.25;7388053;19;20029;-73
2022/10/18 07:43:46;;;;;;;8.48;4.00;;;;;;;17.81;75.54;99219.56;7384944;19;20031;-73
2022/10/18 07:46:13;;;;;;;5.32;4.55;;;;;;;17.83;75.58;99222.06;7387398;19;20031;-73
2022/10/18 07:48:40;;;;;;;6.03;4.18;;;;;;;17.92;75.71;99227.16;7387440;19;20035;-73
2022/10/18 07:51:08;;;;;;;9.15;4.93;;;;;;;17.97;75.45;99219.41;7382899;19;20066;-73
2022/10/18 07:53:35;;;;;;;10.38;4.00;;;;;;;18.05;75.42;99220.34;7385385;19;20010;-72
2022/10/18 07:56:04;;;;;;;6.53;4.57;;;;;;;18.15;75.29;99213.69;7389272;19;20525;-73
2022/10/18 07:58:35;;;;;;;5.70;4.03;;;;;;;18.26;75.25;99216.94;7391715;19;20517;-73
2022/10/18 08:01:06;;;;;;;7.72;4.63;;;;;;;18.36;75.08;99212.97;7394730;19;20414;-72
2022/10/18 08:03:34;;;;;;;7.63;4.05;;;;;;;18.42;75.11;99217.56;7394942;19;20021;-73
2022/10/18 08:06:01;;;;;;;12.55;4.70;;;;;;;18.50;74.93;99216.63;7389765;19;20085;-72
2022/10/18 08:08:28;;;;;;;10.30;4.93;;;;;;;18.63;74.57;99224.03;7390731;19;20335;-72
2022/10/18 08:10:55;;;;;;;10.77;4.35;;;;;;;18.69;74.23;99228.63;7392635;19;20035;-73
2022/10/18 08:13:21;;;;;;;9.32;4.35;;;;;;;18.78;74.17;99221.38;7390815;19;20497;-72
2022/10/18 08:15:48;;;;;;;7.50;4.45;;;;;;;18.92;74.09;99225.03;7392342;19;20027;-73
2022/10/18 08:18:15;;;;;;;6.22;4.30;;;;;;;19.11;73.46;99235.13;7394984;19;20035;-72
2022/10/18 08:20:45;;;;;;;12.32;4.60;;;;;;;19.23;73.37;99239.00;7393265;19;20022;-73
2022/10/18 08:23:11;;;;;;;5.72;4.25;;;;;;;19.40;72.79;99236.06;7391575;19;20478;-73
2022/10/18 08:25:38;;;;;;;8.93;4.32;;;;;;;19.47;72.73;99245.00;7387544;19;20406;-73
2022/10/18 08:28:06;;;;;;;10.95;4.55;;;;;;;19.53;72.80;99247.75;7390496;19;20042;-72
2022/10/18 08:30:34;;;;;;;8.13;4.80;;;;;;;19.42;73.18;99250.94;7389895;19;20035;-72
2022/10/18 08:33:01;;;;;;;12.82;4.80;;;;;;;19.37;73.53;99249.84;7393409;19;20014;-73
2022/10/18 08:35:28;;;;;;;11.50;5.40;;;;;;;19.36;73.32;99250.88;7391538;19;20462;-73
2022/10/18 08:37:55;;;;;;;9.35;4.13;;;;;;;19.41;73.36;99253.84;7391277;19;20011;-73
2022/10/18 08:40:21;;;;;;;9.43;4.97;;;;;;;19.42;73.21;99260.84;7392184;19;20018;-73
2022/10/18 08:43:00;;;;;;;10.32;5.15;;;;;;;19.29;70.51;99254.31;7390587;19;20496;-72
2022/10/18 08:45:27;;;;;;;16.80;5.40;;;;;;;19.26;69.06;99254.69;7389285;19;20010;-72
2022/10/18 08:48:16;;;;;;;7.43;4.40;;;;;;;19.17;68.67;99255.00;7389697;19;20029;-72
2022/10/18 08:50:44;;;;;;;14.63;5.28;;;;;;;19.13;69.13;99253.72;7390122;19;20379;-72
2022/10/18 08:53:16;;;;;;;13.48;4.47;;;;;;;19.10;69.36;99252.25;7392010;19;20370;-72
2022/10/18 08:56:13;;;;;;;10.95;5.22;;;;;;;19.36;68.93;99257.09;7389471;19;20018;-73
2022/10/18 08:58:42;;;;;;;13.10;5.10;;;;;;;19.46;68.26;99260.28;7386791;19;20698;-73
2022/10/18 09:01:31;;;;;;;9.95;4.72;;;;;;;19.37;68.16;99266.78;7389649;19;20071;-73
2022/10/18 09:04:22;;;;;;;7.57;4.47;;;;;;;19.46;67.49;99265.66;7391157;19;20031;-73
2022/10/18 09:07:07;;;;;;;9.85;4.68;;;;;;;19.66;68.36;99273.91;7385937;19;20014;-73
2022/10/18 09:10:01;;;;;;;9.68;4.53;;;;;;;19.82;67.39;99261.25;7389927;19;20010;-73
2022/10/18 09:12:49;;;;;;;10.38;5.05;;;;;;;20.08;66.23;99269.50;7391160;19;20043;-73
2022/10/18 09:15:22;;;;;;;9.43;4.88;;;;;;;20.32;66.58;99265.53;7388907;19;20015;-73
2022/10/18 09:18:22;;;;;;;11.13;4.82;;;;;;;20.38;65.79;99269.31;7388731;19;20007;-73
2022/10/18 09:20:58;;;;;;;9.95;4.90;;;;;;;20.48;65.79;99277.00;7389352;19;21295;-73
2022/10/18 09:23:39;;;;;;;18.17;5.80;;;;;;;20.28;65.56;99282.28;7388532;19;20027;-73
2022/10/18 09:26:14;;;;;;;20.25;6.18;;;;;;;20.13;66.65;99290.44;7387247;19;20047;-73
2022/10/18 09:29:11;;;;;;;16.55;6.05;;;;;;;20.00;67.00;99291.16;7388976;19;20480;-73
2022/10/18 09:32:15;;;;;;;9.30;5.45;;;;;;;20.10;67.32;99294.34;7389036;19;20027;-72
2022/10/18 09:34:50;;;;;;;9.30;4.45;;;;;;;20.09;65.08;99290.00;7387755;19;20022;-73
2022/10/18 09:37:18;;;;;;;11.32;4.13;;;;;;;20.17;64.59;99283.66;7388089;19;20019;-73
2022/10/18 09:39:47;;;;;;;8.43;4.03;;;;;;;20.22;64.48;99283.91;7387082;19;20439;-73
2022/10/18 09:42:25;;;;;;;8.05;3.30;;;;;;;19.92;64.78;99289.44;7388736;19;20018;-73
2022/10/18 09:44:59;;;;;;;7.05;4.18;;;;;;;19.64;65.50;99285.81;7388445;19;20018;-72
2022/10/18 09:47:32;;;;;;;9.70;3.97;;;;;;;19.74;65.77;99297.94;7382477;19;20523;-71
2022/10/18 09:50:32;;;;;;;7.68;4.13;;;;;;;19.57;65.95;99291.16;7386798;19;20022;-73
2022/10/18 09:53:24;;;;;;;7.95;4.10;;;;;;;19.53;66.43;99295.22;7388188;19;20007;-73
2022/10/18 09:55:59;;;;;;;12.13;4.55;;;;;;;19.51;66.48;99287.38;7387205;19;20039;-73
2022/10/18 09:58:42;;;;;;;4.72;3.92;;;;;;;19.70;65.71;99295.84;7386873;19;20485;-73
2022/10/18 10:01:20;;;;;;;10.20;4.22;;;;;;;19.81;65.30;99287.28;7387943;19;20019;-73
2022/10/18 10:03:47;;;;;;;10.60;4.05;;;;;;;19.81;65.69;99294.50;7389056;19;20022;-72
2022/10/18 10:06:15;;;;;;;6.35;3.55;;;;;;;19.86;65.27;99300.13;7383269;19;20026;-73
2022/10/18 10:08:43;;;;;;;5.97;3.83;;;;;;;19.66;65.61;99297.22;7383624;19;20006;-73
2022/10/18 10:11:29;;;;;;;10.45;4.00;;;;;;;19.38;66.43;99297.97;7386954;19;20018;-73
2022/10/18 10:14:06;;;;;;;6.75;3.95;;;;;;;19.17;66.83;99298.78;7391696;19;20932;-73
2022/10/18 10:16:42;;;;;;;6.70;4.00;;;;;;;19.11;67.48;99304.88;7385384;19;20035;-72
2022/10/18 10:19:16;;;;;;;11.68;4.65;;;;;;;19.09;67.71;99304.25;7386816;19;20074;-73
2022/10/18 10:21:43;;;;;;;9.02;4.13;;;;;;;19.06;68.02;99296.56;7385261;19;20014;-73
2022/10/18 10:24:20;;;;;;;10.10;4.47;;;;;;;19.39;67.20;99304.16;7386078;19;20448;-73
2022/10/18 10:26:47;;;;;;;6.70;4.28;;;;;;;19.20;66.74;99302.94;7381673;19;20018;-73
2022/10/18 10:29:59;;;;;;;9.30;4.30;;;;;;;19.29;67.44;99289.19;7387114;19;20081;-73
2022/10/18 10:32:46;;;;;;;5.50;4.22;;;;;;;19.36;67.23;99291.13;7390167;19;20014;-73
2022/10/18 10:35:28;;;;;;;10.55;4.10;;;;;;;19.40;67.04;99290.53;7387816;19;20013;-73
2022/10/18 10:38:22;;;;;;;12.10;5.35;;;;;;;19.45;67.68;99287.28;7385149;19;20017;-73
2022/10/18 10:40:49;;;;;;;7.40;4.00;;;;;;;19.45;67.51;99292.66;7385256;19;20021;-73
2022/10/18 10:43:33;;;;;;;4.47;4.00;;;;;;;19.60;67.38;99280.03;7384748;19;20391;-73
2022/10/18 10:46:13;;;;;;;13.18;5.20;;;;;;;19.71;67.71;99290.28;7387210;19;20474;-73
2022/10/18 10:48:50;;;;;;;7.47;3.75;;;;;;;19.68;67.63;99281.78;7387156;19;20372;-73
2022/10/18 10:51:38;;;;;;;9.38;4.40;;;;;;;19.72;67.98;99283.91;7387902;19;20407;-74
2022/10/18 10:54:21;;;;;;;6.07;4.05;;;;;;;19.78;68.26;99279.59;7385902;19;20519;-74
2022/10/18 10:57:02;;;;;;;6.68;3.90;;;;;;;19.71;67.69;99276.84;7385698;19;20018;-74
2022/10/18 10:59:33;;;;;;;8.25;4.00;;;;;;;19.77;67.91;99282.47;7386439;19;20383;-74
2022/10/18 11:02:18;;;;;;;5.80;3.88;;;;;;;19.95;67.40;99286.34;7387031;19;20011;-73
2022/10/18 11:04:46;;;;;;;8.25;4.25;;;;;;;19.99;67.88;99284.13;7386365;19;20039;-73
2022/10/18 11:07:32;;;;;;;7.93;3.97;;;;;;;19.97;66.58;99277.28;7384215;19;20014;-72
2022/10/18 11:10:05;;;;;;;6.10;3.70;;;;;;;20.08;66.99;99277.56;7386904;19;20413;-73
2022/10/18 11:12:35;;;;;;;9.60;3.78;;;;;;;20.11;67.81;99279.03;7383517;19;20027;-73
2022/10/18 11:15:02;;;;;;;10.75;4.00;;;;;;;20.06;69.18;99273.41;7382055;19;20363;-73
2022/10/18 11:17:34;;;;;;;9.25;4.32;;;;;;;20.03;69.18;99274.63;7386742;19;20014;-72
2022/10/18 11:20:19;;;;;;;;;;;;;;;19.89;69.54;99273.72;7385159;19;20048;-73
2022/10/18 11:22:55;;;;;;;11.45;3.83;;;;;;;19.80;69.44;99274.03;7388447;19;19930;-73
2022/10/18 11:25:24;;;;;;;10.73;4.13;;;;;;;19.80;69.56;99274.03;7386700;19;20015;-73
2022/10/18 11:28:03;;;;;;;6.70;4.03;;;;;;;19.94;68.63;99268.59;7381495;19;20037;-72
2022/10/18 11:30:38;;;;;;;5.90;3.97;;;;;;;20.14;67.56;99263.38;7381566;19;20017;-73
2022/10/18 11:33:17;;;;;;;6.32;3.38;;;;;;;20.64;66.53;99265.97;7386518;19;20015;-73
2022/10/18 11:35:49;;;;;;;7.40;3.78;;;;;;;21.27;64.36;99260.41;7381411;19;20022;-73
2022/10/18 11:38:35;;;;;;;11.07;3.30;;;;;;;21.66;63.20;99256.16;7383394;19;20039;-74
2022/10/18 11:41:23;;;;;;;14.40;4.07;;;;;;;21.67;62.73;99260.53;7386692;19;20015;-72
2022/10/18 11:44:01;;;;;;;4.25;3.42;;;;;;;21.94;62.20;99247.91;7386425;19;20014;-74
2022/10/18 11:46:46;;;;;;;6.18;3.15;;;;;;;21.97;61.63;99260.94;7380902;19;20508;-73
2022/10/18 11:49:40;;;;;;;6.78;2.90;;;;;;;21.92;60.42;99249.97;7381423;19;20489;-73
2022/10/18 11:52:14;;;;;;;4.97;3.08;;;;;;;21.99;60.36;99252.66;7385235;19;20007;-74
2022/10/18 11:54:51;;;;;;;5.45;2.53;;;;;;;22.04;60.58;99250.19;7381881;19;20015;-74